sensor_id;sensor_type;location;lat;lon;timestamp;P1;durP1;ratioP1;P2;durP2;ratioP2
44446;SDS011;30152;52.066;5.358;2024-01-30T07:23:46;19.10;;;10.93;;
44446;SDS011;30152;52.066;5.358;2024-01-30T07:26:12;19.73;;;10.98;;
44446;SDS011;30152;52.066;5.358;2024-01-30T07:28:38;17.57;;;10.67;;
44446;SDS011;30152;52.066;5.358;2024-01-30T07:31:03;16.90;;;10.77;;
44446;SDS011;30152;52.066;5.358;2024-01-30T07:33:30;20.90;;;10.68;;
44446;SDS011;30152;52.066;5.358;2024-01-30T07:35:56;19.43;;;11.27;;
44446;SDS011;30152;52.066;5.358;2024-01-30T07:38:21;19.93;;;10.50;;
44446;SDS011;30152;52.066;5.358;2024-01-30T07:40:47;18.52;;;10.70;;
44446;SDS011;30152;52.066;5.358;2024-01-30T07:43:13;19.25;;;10.95;;
44446;SDS011;30152;52.066;5.358;2024-01-30T07:45:39;19.80;;;10.43;;
44446;SDS011;30152;52.066;5.358;2024-01-30T07:48:06;18.80;;;10.90;;
44446;SDS011;30152;52.066;5.358;2024-01-30T07:50:32;21.45;;;11.40;;
44446;SDS011;30152;52.066;5.358;2024-01-30T07:52:59;19.98;;;11.55;;
44446;SDS011;30152;52.066;5.358;2024-01-30T07:55:25;18.15;;;11.40;;
44446;SDS011;30152;52.066;5.358;2024-01-30T07:57:53;17.75;;;10.82;;
44446;SDS011;30152;52.066;5.358;2024-01-30T08:00:20;19.50;;;11.27;;
44446;SDS011;30152;52.066;5.358;2024-01-30T08:02:52;20.45;;;10.73;;
44446;SDS011;30152;52.066;5.358;2024-01-30T08:05:20;19.47;;;10.83;;
44446;SDS011;30152;52.066;5.358;2024-01-30T08:07:47;17.53;;;10.77;;
44446;SDS011;30152;52.066;5.358;2024-01-30T08:10:14;20.37;;;10.83;;
44446;SDS011;30152;52.066;5.358;2024-01-30T08:12:39;18.42;;;10.40;;
44446;SDS011;30152;52.066;5.358;2024-01-30T08:15:05;18.13;;;10.20;;
44446;SDS011;30152;52.066;5.358;2024-01-30T08:17:32;18.80;;;10.13;;
44446;SDS011;30152;52.066;5.358;2024-01-30T08:19:58;17.02;;;10.38;;
44446;SDS011;30152;52.066;5.358;2024-01-30T08:22:23;20.37;;;10.47;;
44446;SDS011;30152;52.066;5.358;2024-01-30T08:24:49;20.50;;;10.20;;
44446;SDS011;30152;52.066;5.358;2024-01-30T08:27:15;18.00;;;10.38;;
44446;SDS011;30152;52.066;5.358;2024-01-30T08:29:41;22.45;;;11.20;;
44446;SDS011;30152;52.066;5.358;2024-01-30T08:32:07;20.65;;;10.02;;
44446;SDS011;30152;52.066;5.358;2024-01-30T08:34:33;20.95;;;10.68;;
44446;SDS011;30152;52.066;5.358;2024-01-30T08:36:59;25.05;;;10.35;;
44446;SDS011;30152;52.066;5.358;2024-01-30T08:39:25;21.37;;;10.53;;
44446;SDS011;30152;52.066;5.358;2024-01-30T08:41:51;20.33;;;10.77;;
44446;SDS011;30152;52.066;5.358;2024-01-30T08:44:17;20.55;;;10.27;;
44446;SDS011;30152;52.066;5.358;2024-01-30T08:46:43;20.27;;;10.40;;
44446;SDS011;30152;52.066;5.358;2024-01-30T08:49:10;20.95;;;10.40;;
44446;SDS011;30152;52.066;5.358;2024-01-30T08:51:38;24.63;;;10.80;;
44446;SDS011;30152;52.066;5.358;2024-01-30T08:54:04;19.63;;;10.30;;
44446;SDS011;30152;52.066;5.358;2024-01-30T08:56:30;21.95;;;10.27;;
44446;SDS011;30152;52.066;5.358;2024-01-30T08:58:55;19.48;;;10.20;;
44446;SDS011;30152;52.066;5.358;2024-01-30T09:01:21;21.93;;;10.70;;
44446;SDS011;30152;52.066;5.358;2024-01-30T09:03:47;22.05;;;10.23;;
44446;SDS011;30152;52.066;5.358;2024-01-30T09:06:13;21.70;;;9.75;;
44446;SDS011;30152;52.066;5.358;2024-01-30T09:08:39;20.73;;;9.88;;
44446;SDS011;30152;52.066;5.358;2024-01-30T09:11:09;23.47;;;9.70;;
44446;SDS011;30152;52.066;5.358;2024-01-30T09:13:35;20.88;;;10.07;;
44446;SDS011;30152;52.066;5.358;2024-01-30T09:16:00;18.05;;;9.50;;
44446;SDS011;30152;52.066;5.358;2024-01-30T09:18:26;20.27;;;9.00;;
44446;SDS011;30152;52.066;5.358;2024-01-30T09:20:52;20.87;;;9.70;;
44446;SDS011;30152;52.066;5.358;2024-01-30T09:23:18;19.83;;;9.32;;
44446;SDS011;30152;52.066;5.358;2024-01-30T09:25:44;23.05;;;9.27;;
44446;SDS011;30152;52.066;5.358;2024-01-30T09:28:10;19.60;;;9.65;;
44446;SDS011;30152;52.066;5.358;2024-01-30T09:30:36;15.88;;;9.45;;
44446;SDS011;30152;52.066;5.358;2024-01-30T09:33:02;17.67;;;9.60;;
44446;SDS011;30152;52.066;5.358;2024-01-30T09:35:28;21.43;;;10.47;;
44446;SDS011;30152;52.066;5.358;2024-01-30T09:37:55;20.75;;;9.98;;
44446;SDS011;30152;52.066;5.358;2024-01-30T09:40:22;16.50;;;9.13;;
44446;SDS011;30152;52.066;5.358;2024-01-30T09:42:48;21.73;;;10.35;;
44446;SDS011;30152;52.066;5.358;2024-01-30T09:45:15;20.33;;;9.40;;
44446;SDS011;30152;52.066;5.358;2024-01-30T09:47:44;17.83;;;10.10;;
44446;SDS011;30152;52.066;5.358;2024-01-30T09:50:11;18.95;;;9.50;;
44446;SDS011;30152;52.066;5.358;2024-01-30T09:52:37;17.98;;;9.88;;
44446;SDS011;30152;52.066;5.358;2024-01-30T09:55:04;18.00;;;9.68;;
44446;SDS011;30152;52.066;5.358;2024-01-30T09:57:30;20.48;;;9.50;;
44446;SDS011;30152;52.066;5.358;2024-01-30T09:59:55;24.90;;;10.27;;
44446;SDS011;30152;52.066;5.358;2024-01-30T10:02:22;20.90;;;9.70;;
44446;SDS011;30152;52.066;5.358;2024-01-30T10:04:48;19.67;;;9.82;;
44446;SDS011;30152;52.066;5.358;2024-01-30T10:07:14;19.20;;;9.77;;
44446;SDS011;30152;52.066;5.358;2024-01-30T10:09:42;20.13;;;10.05;;
44446;SDS011;30152;52.066;5.358;2024-01-30T10:12:09;18.10;;;9.88;;
44446;SDS011;30152;52.066;5.358;2024-01-30T10:14:41;20.13;;;9.60;;
44446;SDS011;30152;52.066;5.358;2024-01-30T10:17:07;18.48;;;9.90;;
44446;SDS011;30152;52.066;5.358;2024-01-30T10:19:37;18.92;;;10.00;;
44446;SDS011;30152;52.066;5.358;2024-01-30T10:22:04;21.48;;;10.77;;
44446;SDS011;30152;52.066;5.358;2024-01-30T10:24:30;20.47;;;9.53;;
44446;SDS011;30152;52.066;5.358;2024-01-30T10:26:56;19.45;;;10.02;;
44446;SDS011;30152;52.066;5.358;2024-01-30T10:29:23;17.52;;;9.82;;
44446;SDS011;30152;52.066;5.358;2024-01-30T10:32:02;19.87;;;9.50;;
44446;SDS011;30152;52.066;5.358;2024-01-30T10:34:28;18.25;;;8.90;;
44446;SDS011;30152;52.066;5.358;2024-01-30T10:37:12;21.58;;;9.90;;
44446;SDS011;30152;52.066;5.358;2024-01-30T10:39:42;17.65;;;9.27;;
44446;SDS011;30152;52.066;5.358;2024-01-30T10:42:12;16.92;;;8.95;;
44446;SDS011;30152;52.066;5.358;2024-01-30T10:44:50;19.88;;;9.45;;
44446;SDS011;30152;52.066;5.358;2024-01-30T10:47:26;18.45;;;9.60;;
44446;SDS011;30152;52.066;5.358;2024-01-30T10:49:52;18.90;;;9.47;;
44446;SDS011;30152;52.066;5.358;2024-01-30T10:52:20;17.92;;;9.02;;
44446;SDS011;30152;52.066;5.358;2024-01-30T10:54:46;19.33;;;9.00;;
44446;SDS011;30152;52.066;5.358;2024-01-30T10:57:12;16.05;;;9.02;;
44446;SDS011;30152;52.066;5.358;2024-01-30T10:59:39;19.83;;;8.98;;
44446;SDS011;30152;52.066;5.358;2024-01-30T11:02:05;19.77;;;9.25;;
44446;SDS011;30152;52.066;5.358;2024-01-30T11:04:35;16.05;;;8.98;;
44446;SDS011;30152;52.066;5.358;2024-01-30T11:07:01;19.55;;;8.63;;
44446;SDS011;30152;52.066;5.358;2024-01-30T11:09:29;17.17;;;9.32;;
44446;SDS011;30152;52.066;5.358;2024-01-30T11:11:58;18.08;;;8.93;;
44446;SDS011;30152;52.066;5.358;2024-01-30T11:14:28;17.57;;;9.27;;
44446;SDS011;30152;52.066;5.358;2024-01-30T11:16:58;18.88;;;9.30;;
44446;SDS011;30152;52.066;5.358;2024-01-30T11:19:24;17.23;;;9.23;;
44446;SDS011;30152;52.066;5.358;2024-01-30T11:21:51;17.15;;;8.98;;
44446;SDS011;30152;52.066;5.358;2024-01-30T11:24:20;16.80;;;8.27;;
44446;SDS011;30152;52.066;5.358;2024-01-30T11:26:49;15.93;;;7.20;;
44446;SDS011;30152;52.066;5.358;2024-01-30T11:29:16;16.48;;;7.13;;
44446;SDS011;30152;52.066;5.358;2024-01-30T11:32:01;15.98;;;7.88;;
44446;SDS011;30152;52.066;5.358;2024-01-30T11:34:27;17.48;;;7.18;;
44446;SDS011;30152;52.066;5.358;2024-01-30T11:36:57;14.88;;;6.05;;
44446;SDS011;30152;52.066;5.358;2024-01-30T11:39:25;11.60;;;4.85;;
44446;SDS011;30152;52.066;5.358;2024-01-30T11:41:54;10.27;;;4.38;;
44446;SDS011;30152;52.066;5.358;2024-01-30T11:44:20;12.75;;;4.30;;
44446;SDS011;30152;52.066;5.358;2024-01-30T11:46:50;9.68;;;3.38;;
44446;SDS011;30152;52.066;5.358;2024-01-30T11:49:17;11.52;;;3.38;;
44446;SDS011;30152;52.066;5.358;2024-01-30T11:51:43;13.00;;;3.53;;
44446;SDS011;30152;52.066;5.358;2024-01-30T11:54:09;11.93;;;3.40;;
44446;SDS011;30152;52.066;5.358;2024-01-30T11:56:34;11.75;;;2.80;;
44446;SDS011;30152;52.066;5.358;2024-01-30T11:59:02;9.55;;;2.90;;
44446;SDS011;30152;52.066;5.358;2024-01-30T12:01:28;11.93;;;2.92;;
44446;SDS011;30152;52.066;5.358;2024-01-30T12:03:54;10.68;;;2.53;;
44446;SDS011;30152;52.066;5.358;2024-01-30T12:06:21;9.13;;;2.28;;
44446;SDS011;30152;52.066;5.358;2024-01-30T12:08:57;8.40;;;1.90;;
44446;SDS011;30152;52.066;5.358;2024-01-30T12:11:29;8.88;;;1.88;;
44446;SDS011;30152;52.066;5.358;2024-01-30T12:13:55;8.10;;;2.13;;
44446;SDS011;30152;52.066;5.358;2024-01-30T12:16:21;10.57;;;2.53;;
44446;SDS011;30152;52.066;5.358;2024-01-30T12:18:48;7.65;;;2.90;;
44446;SDS011;30152;52.066;5.358;2024-01-30T12:21:17;7.68;;;2.65;;
44446;SDS011;30152;52.066;5.358;2024-01-30T12:23:43;9.77;;;3.30;;
44446;SDS011;30152;52.066;5.358;2024-01-30T12:26:09;10.10;;;3.28;;
44446;SDS011;30152;52.066;5.358;2024-01-30T12:28:35;8.73;;;3.35;;
44446;SDS011;30152;52.066;5.358;2024-01-30T12:31:01;11.30;;;3.90;;
44446;SDS011;30152;52.066;5.358;2024-01-30T12:33:28;12.25;;;3.97;;
44446;SDS011;30152;52.066;5.358;2024-01-30T12:35:55;9.50;;;3.97;;
44446;SDS011;30152;52.066;5.358;2024-01-30T12:38:26;10.47;;;3.30;;
44446;SDS011;30152;52.066;5.358;2024-01-30T12:40:55;9.27;;;2.53;;
44446;SDS011;30152;52.066;5.358;2024-01-30T12:43:22;10.50;;;2.38;;
44446;SDS011;30152;52.066;5.358;2024-01-30T12:45:49;14.25;;;2.90;;
44446;SDS011;30152;52.066;5.358;2024-01-30T12:48:15;13.55;;;2.70;;
44446;SDS011;30152;52.066;5.358;2024-01-30T12:50:41;10.93;;;2.55;;
44446;SDS011;30152;52.066;5.358;2024-01-30T12:53:07;9.73;;;2.30;;
44446;SDS011;30152;52.066;5.358;2024-01-30T12:55:34;7.97;;;2.38;;
44446;SDS011;30152;52.066;5.358;2024-01-30T12:58:00;11.50;;;2.58;;
44446;SDS011;30152;52.066;5.358;2024-01-30T13:00:26;11.05;;;2.58;;
44446;SDS011;30152;52.066;5.358;2024-01-30T13:02:52;12.93;;;3.00;;
44446;SDS011;30152;52.066;5.358;2024-01-30T13:05:18;11.50;;;2.97;;
44446;SDS011;30152;52.066;5.358;2024-01-30T13:07:44;8.87;;;2.33;;
44446;SDS011;30152;52.066;5.358;2024-01-30T13:10:10;7.57;;;2.50;;
44446;SDS011;30152;52.066;5.358;2024-01-30T13:12:35;8.50;;;2.40;;
44446;SDS011;30152;52.066;5.358;2024-01-30T13:15:03;10.03;;;2.70;;
44446;SDS011;30152;52.066;5.358;2024-01-30T13:17:31;6.27;;;2.50;;
44446;SDS011;30152;52.066;5.358;2024-01-30T13:19:58;8.85;;;2.53;;
44446;SDS011;30152;52.066;5.358;2024-01-30T13:22:24;11.38;;;2.90;;
44446;SDS011;30152;52.066;5.358;2024-01-30T13:24:50;8.93;;;2.80;;
44446;SDS011;30152;52.066;5.358;2024-01-30T13:27:16;10.05;;;3.10;;
44446;SDS011;30152;52.066;5.358;2024-01-30T13:29:42;9.25;;;3.55;;
44446;SDS011;30152;52.066;5.358;2024-01-30T13:32:08;9.73;;;3.10;;
44446;SDS011;30152;52.066;5.358;2024-01-30T13:34:34;11.13;;;2.92;;
44446;SDS011;30152;52.066;5.358;2024-01-30T13:37:04;9.90;;;2.30;;
44446;SDS011;30152;52.066;5.358;2024-01-30T13:39:30;6.80;;;2.17;;
44446;SDS011;30152;52.066;5.358;2024-01-30T13:41:56;9.32;;;2.05;;
44446;SDS011;30152;52.066;5.358;2024-01-30T13:44:22;7.60;;;1.83;;
44446;SDS011;30152;52.066;5.358;2024-01-30T13:46:48;8.98;;;2.05;;
44446;SDS011;30152;52.066;5.358;2024-01-30T13:49:14;6.85;;;1.67;;
44446;SDS011;30152;52.066;5.358;2024-01-30T13:51:40;5.32;;;1.15;;
44446;SDS011;30152;52.066;5.358;2024-01-30T13:54:05;6.20;;;1.30;;
44446;SDS011;30152;52.066;5.358;2024-01-30T13:56:31;6.80;;;0.98;;
44446;SDS011;30152;52.066;5.358;2024-01-30T13:58:57;7.88;;;1.02;;
44446;SDS011;30152;52.066;5.358;2024-01-30T14:01:24;7.88;;;1.05;;
44446;SDS011;30152;52.066;5.358;2024-01-30T14:03:50;7.05;;;0.90;;
44446;SDS011;30152;52.066;5.358;2024-01-30T14:06:16;5.65;;;1.23;;
44446;SDS011;30152;52.066;5.358;2024-01-30T14:08:42;8.13;;;1.40;;
44446;SDS011;30152;52.066;5.358;2024-01-30T14:11:08;8.20;;;1.15;;
44446;SDS011;30152;52.066;5.358;2024-01-30T14:13:34;7.53;;;1.10;;
44446;SDS011;30152;52.066;5.358;2024-01-30T14:16:00;6.93;;;1.30;;
44446;SDS011;30152;52.066;5.358;2024-01-30T14:18:26;6.45;;;1.38;;
44446;SDS011;30152;52.066;5.358;2024-01-30T14:20:52;6.28;;;1.45;;
44446;SDS011;30152;52.066;5.358;2024-01-30T14:23:19;7.05;;;1.20;;
44446;SDS011;30152;52.066;5.358;2024-01-30T14:25:46;4.97;;;1.08;;
44446;SDS011;30152;52.066;5.358;2024-01-30T14:28:12;5.18;;;0.95;;
44446;SDS011;30152;52.066;5.358;2024-01-30T14:30:38;9.40;;;1.60;;
44446;SDS011;30152;52.066;5.358;2024-01-30T14:33:04;5.53;;;1.30;;
44446;SDS011;30152;52.066;5.358;2024-01-30T14:35:30;10.13;;;1.75;;
44446;SDS011;30152;52.066;5.358;2024-01-30T14:37:55;7.32;;;1.50;;
44446;SDS011;30152;52.066;5.358;2024-01-30T14:40:21;7.50;;;1.60;;
44446;SDS011;30152;52.066;5.358;2024-01-30T14:42:47;10.35;;;2.30;;
44446;SDS011;30152;52.066;5.358;2024-01-30T14:45:13;8.53;;;1.90;;
44446;SDS011;30152;52.066;5.358;2024-01-30T14:47:39;9.05;;;1.90;;
44446;SDS011;30152;52.066;5.358;2024-01-30T14:50:06;9.98;;;2.17;;
44446;SDS011;30152;52.066;5.358;2024-01-30T14:52:33;7.47;;;2.50;;
44446;SDS011;30152;52.066;5.358;2024-01-30T14:54:59;10.70;;;2.80;;
44446;SDS011;30152;52.066;5.358;2024-01-30T14:57:25;10.43;;;2.53;;
44446;SDS011;30152;52.066;5.358;2024-01-30T14:59:51;9.48;;;2.95;;
44446;SDS011;30152;52.066;5.358;2024-01-30T15:02:17;10.90;;;2.85;;
44446;SDS011;30152;52.066;5.358;2024-01-30T15:04:43;10.50;;;3.25;;
44446;SDS011;30152;52.066;5.358;2024-01-30T15:07:09;11.30;;;3.55;;
44446;SDS011;30152;52.066;5.358;2024-01-30T15:09:35;11.70;;;3.90;;
44446;SDS011;30152;52.066;5.358;2024-01-30T15:12:01;12.03;;;3.93;;
44446;SDS011;30152;52.066;5.358;2024-01-30T15:14:27;11.88;;;3.90;;
44446;SDS011;30152;52.066;5.358;2024-01-30T15:16:53;9.48;;;4.05;;
44446;SDS011;30152;52.066;5.358;2024-01-30T15:19:18;12.93;;;5.03;;
44446;SDS011;30152;52.066;5.358;2024-01-30T15:55:48;15.10;;;5.18;;
44446;SDS011;30152;52.066;5.358;2024-01-30T15:58:13;15.00;;;7.28;;
44446;SDS011;30152;52.066;5.358;2024-01-30T16:00:42;22.10;;;9.60;;
44446;SDS011;30152;52.066;5.358;2024-01-30T16:03:08;18.27;;;10.40;;
